Terminal Aerodrome Forecast
Issued by NWS

Home | Current Version | Previous Version | Text Only | Print | Product List | Glossary On
Versions: 1 2 3 4 5 6 7 8 9 10 11 12 13 14 15 16 17 18 19 20 21 22 23 24 25 26 27 28 29 30
000
FTAK31 PANC 290619 AAA
TAFADL
TAF AMD
PADL 290619Z 2906/3006 04010KT P6SM BKN040 OVC050
     FM291800 36012G19KT P6SM FEW250
      AMD LTD TO CLD VIS AND WIND 2907/2916=

USA.gov is the U.S. government's official web portal to all federal, state and local government web resources and services.